Great — TCYV6 — position and weather

sailwx.info

Track history (hours):
 
Tides and Currents Weather Stations Pressure Air Temp Water Temp Dewpoint Dewpoint Depression Visibility Wind Speed Wind Dir Waves Ship Positions

Great

Last reported at 2014-Aug-09 21:25 UTC. Time now 2014-Aug-21 04:23 UTC.
Position N 36°24' E 022°46'.
Warning: this ship's position is 11 days out of date.

Length 187 m; draft 8.4 m.

Type: Cargo ship. MMSI: 271042241.

Date/timePositionNaut miles runAvg speedWind from/ knotsBaromVisibWave heightAir tempDewpointWater temp
2014-Aug-09 21:25N 36°24' E 022°46'1311.3
2014-Aug-09 20:17N 36°25' E 023°02'4010.3
2014-Aug-09 16:23N 36°55' E 023°36'1011.7
2014-Aug-09 15:33N 37°02' E 023°43'1211.7
2014-Aug-09 14:33N 37°12' E 023°52'1411.6
2014-Aug-09 13:19N 37°24' E 024°01'3811.8
2014-Aug-09 10:08N 37°53' E 024°31'6811.9
2014-Aug-09 04:26N 38°53' E 025°12'20510.7
2014-Aug-08 09:15N 40°55' E 028°47'324 8.0
2014-Aug-06 16:33N 44°01' E 034°46'1212.1
2014-Aug-06 15:33N 44°08' E 035°00'1211.8
2014-Aug-06 14:33N 44°15' E 035°14'1111.4
2014-Aug-06 13:33N 44°21' E 035°27'  
Track history (hours):
 
Tides and Currents Weather Stations Pressure Air Temp Water Temp Dewpoint Dewpoint Depression Visibility Wind Speed Wind Dir Waves Ship Positions

Great

Last reported at 2014-Aug-09 21:25 UTC. Time now 2014-Aug-21 04:23 UTC.
Position N 36°24' E 022°46'.
Warning: this ship's position is 11 days out of date.

Length 187 m; draft 8.4 m.

Type: Cargo ship. MMSI: 271042241.

Date/timePositionNaut miles runAvg speedWind from/ knotsBaromVisibWave heightAir tempDewpointWater temp
2014-Aug-09 21:25N 36°24' E 022°46'1311.3
2014-Aug-09 20:17N 36°25' E 023°02'4010.3
2014-Aug-09 16:23N 36°55' E 023°36'1011.7
2014-Aug-09 15:33N 37°02' E 023°43'1211.7
2014-Aug-09 14:33N 37°12' E 023°52'1411.6
2014-Aug-09 13:19N 37°24' E 024°01'3811.8
2014-Aug-09 10:08N 37°53' E 024°31'6811.9
2014-Aug-09 04:26N 38°53' E 025°12'20510.7
2014-Aug-08 09:15N 40°55' E 028°47'324 8.0
2014-Aug-06 16:33N 44°01' E 034°46'1212.1
2014-Aug-06 15:33N 44°08' E 035°00'1211.8
2014-Aug-06 14:33N 44°15' E 035°14'1111.4
2014-Aug-06 13:33N 44°21' E 035°27'  

Dump ship's entire track history